sensor_id;sensor_type;location;lat;lon;timestamp;pressure;altitude;pressure_sealevel;temperature;humidity
65760;BME280;52496;51.082;5.066;2022-09-09T00:05:09;100751.59;;;13.95;100.00
65760;BME280;52496;51.082;5.066;2022-09-09T00:07:49;100741.88;;;13.94;100.00
65760;BME280;52496;51.082;5.066;2022-09-09T00:15:39;100741.03;;;13.87;100.00
65760;BME280;52496;51.082;5.066;2022-09-09T00:21:18;100738.16;;;13.82;100.00
65760;BME280;52496;51.082;5.066;2022-09-09T00:23:52;100729.47;;;13.80;100.00
65760;BME280;52496;51.082;5.066;2022-09-09T00:26:34;100735.25;;;13.76;100.00
65760;BME280;52496;51.082;5.066;2022-09-09T00:31:42;100731.31;;;13.72;100.00
65760;BME280;52496;51.082;5.066;2022-09-09T00:34:16;100730.72;;;13.70;100.00
65760;BME280;52496;51.082;5.066;2022-09-09T00:36:52;100727.81;;;13.72;100.00
65760;BME280;52496;51.082;5.066;2022-09-09T00:39:42;100730.31;;;13.73;100.00
65760;BME280;52496;51.082;5.066;2022-09-09T00:42:15;100731.94;;;13.74;100.00
65760;BME280;52496;51.082;5.066;2022-09-09T00:45:02;100729.25;;;13.74;100.00
65760;BME280;52496;51.082;5.066;2022-09-09T00:47:50;100726.56;;;13.74;100.00
65760;BME280;52496;51.082;5.066;2022-09-09T00:50:50;100726.56;;;13.74;100.00
65760;BME280;52496;51.082;5.066;2022-09-09T00:56:37;100717.88;;;13.72;100.00
65760;BME280;52496;51.082;5.066;2022-09-09T00:59:37;100717.88;;;13.72;100.00
65760;BME280;52496;51.082;5.066;2022-09-09T01:02:28;100728.25;;;13.75;100.00
65760;BME280;52496;51.082;5.066;2022-09-09T01:08:43;100722.88;;;13.75;100.00
65760;BME280;52496;51.082;5.066;2022-09-09T01:11:05;100725.34;;;13.70;100.00
65760;BME280;52496;51.082;5.066;2022-09-09T01:13:38;100713.34;;;13.66;100.00
65760;BME280;52496;51.082;5.066;2022-09-09T01:16:10;100721.63;;;13.65;100.00
65760;BME280;52496;51.082;5.066;2022-09-09T01:18:45;100716.66;;;13.62;100.00
65760;BME280;52496;51.082;5.066;2022-09-09T01:26:43;100706.53;;;13.57;100.00
65760;BME280;52496;51.082;5.066;2022-09-09T01:29:18;100709.63;;;13.54;100.00
65760;BME280;52496;51.082;5.066;2022-09-09T01:31:57;100698.47;;;13.50;100.00
65760;BME280;52496;51.082;5.066;2022-09-09T01:34:36;100701.38;;;13.49;100.00
65760;BME280;52496;51.082;5.066;2022-09-09T01:37:10;100693.72;;;13.46;100.00
65760;BME280;52496;51.082;5.066;2022-09-09T01:39:43;100693.94;;;13.44;100.00
65760;BME280;52496;51.082;5.066;2022-09-09T01:42:15;100697.66;;;13.43;100.00
65760;BME280;52496;51.082;5.066;2022-09-09T01:44:46;100692.69;;;13.40;100.00
65760;BME280;52496;51.082;5.066;2022-09-09T01:47:16;100695.38;;;13.40;100.00
65760;BME280;52496;51.082;5.066;2022-09-09T01:49:47;100689.38;;;13.38;100.00
65760;BME280;52496;51.082;5.066;2022-09-09T01:52:18;100686.91;;;13.37;100.00
65760;BME280;52496;51.082;5.066;2022-09-09T01:54:48;100687.94;;;13.36;100.00
65760;BME280;52496;51.082;5.066;2022-09-09T01:57:28;100678.63;;;13.38;100.00
65760;BME280;52496;51.082;5.066;2022-09-09T02:00:04;100678.22;;;13.41;100.00
65760;BME280;52496;51.082;5.066;2022-09-09T02:08:55;100690.00;;;13.53;100.00
65760;BME280;52496;51.082;5.066;2022-09-09T02:11:28;100675.56;;;13.54;100.00
65760;BME280;52496;51.082;5.066;2022-09-09T02:14:18;100682.56;;;13.56;100.00
65760;BME280;52496;51.082;5.066;2022-09-09T02:17:09;100682.75;;;13.54;100.00
65760;BME280;52496;51.082;5.066;2022-09-09T02:19:51;100679.06;;;13.55;100.00
65760;BME280;52496;51.082;5.066;2022-09-09T02:22:26;100681.94;;;13.53;100.00
65760;BME280;52496;51.082;5.066;2022-09-09T02:24:59;100685.44;;;13.54;100.00
65760;BME280;52496;51.082;5.066;2022-09-09T02:27:30;100674.69;;;13.54;100.00
65760;BME280;52496;51.082;5.066;2022-09-09T02:30:02;100671.19;;;13.53;100.00
65760;BME280;52496;51.082;5.066;2022-09-09T02:32:35;100669.16;;;13.49;100.00
65760;BME280;52496;51.082;5.066;2022-09-09T02:35:09;100669.16;;;13.49;100.00
65760;BME280;52496;51.082;5.066;2022-09-09T02:37:42;100660.25;;;13.48;100.00
65760;BME280;52496;51.082;5.066;2022-09-09T02:40:16;100655.09;;;13.47;100.00
65760;BME280;52496;51.082;5.066;2022-09-09T02:42:48;100659.63;;;13.46;100.00
65760;BME280;52496;51.082;5.066;2022-09-09T02:45:21;100663.56;;;13.44;100.00
65760;BME280;52496;51.082;5.066;2022-09-09T02:51:08;100661.28;;;13.41;100.00
65760;BME280;52496;51.082;5.066;2022-09-09T02:54:04;100667.91;;;13.38;100.00
65760;BME280;52496;51.082;5.066;2022-09-09T02:56:43;100662.94;;;13.35;100.00
65760;BME280;52496;51.082;5.066;2022-09-09T02:59:16;100661.50;;;13.32;100.00
65760;BME280;52496;51.082;5.066;2022-09-09T03:01:47;100663.56;;;13.30;100.00
65760;BME280;52496;51.082;5.066;2022-09-09T03:04:17;100667.28;;;13.29;100.00
65760;BME280;52496;51.082;5.066;2022-09-09T03:06:48;100671.63;;;13.30;100.00
65760;BME280;52496;51.082;5.066;2022-09-09T03:09:19;100673.50;;;13.30;100.00
65760;BME280;52496;51.082;5.066;2022-09-09T03:11:49;100667.50;;;13.35;100.00
65760;BME280;52496;51.082;5.066;2022-09-09T03:14:20;100664.59;;;13.43;100.00
65760;BME280;52496;51.082;5.066;2022-09-09T03:16:52;100668.72;;;13.52;100.00
65760;BME280;52496;51.082;5.066;2022-09-09T03:19:23;100675.53;;;13.61;100.00
65760;BME280;52496;51.082;5.066;2022-09-09T03:21:54;100674.06;;;13.65;100.00
65760;BME280;52496;51.082;5.066;2022-09-09T03:24:25;100685.63;;;13.72;100.00
65760;BME280;52496;51.082;5.066;2022-09-09T03:26:55;100675.31;;;13.76;100.00
65760;BME280;52496;51.082;5.066;2022-09-09T03:29:26;100668.91;;;13.77;100.00
65760;BME280;52496;51.082;5.066;2022-09-09T03:31:56;100661.66;;;13.77;100.00
65760;BME280;52496;51.082;5.066;2022-09-09T03:34:27;100668.28;;;13.82;100.00
65760;BME280;52496;51.082;5.066;2022-09-09T03:36:57;100666.19;;;13.84;100.00
65760;BME280;52496;51.082;5.066;2022-09-09T03:39:28;100674.47;;;13.89;100.00
65760;BME280;52496;51.082;5.066;2022-09-09T03:41:59;100667.84;;;13.91;100.00
65760;BME280;52496;51.082;5.066;2022-09-09T03:44:30;100674.66;;;13.94;100.00
65760;BME280;52496;51.082;5.066;2022-09-09T03:47:00;100667.41;;;13.94;100.00
65760;BME280;52496;51.082;5.066;2022-09-09T03:49:31;100669.06;;;13.95;100.00
65760;BME280;52496;51.082;5.066;2022-09-09T03:52:01;100671.13;;;13.93;100.00
65760;BME280;52496;51.082;5.066;2022-09-09T03:54:32;100670.31;;;13.93;100.00
65760;BME280;52496;51.082;5.066;2022-09-09T03:57:03;100664.09;;;13.92;100.00
65760;BME280;52496;51.082;5.066;2022-09-09T03:59:34;100665.56;;;13.95;100.00
65760;BME280;52496;51.082;5.066;2022-09-09T04:02:05;100653.75;;;13.96;100.00
65760;BME280;52496;51.082;5.066;2022-09-09T04:04:35;100657.50;;;13.95;100.00
65760;BME280;52496;51.082;5.066;2022-09-09T04:07:06;100657.25;;;13.96;100.00
65760;BME280;52496;51.082;5.066;2022-09-09T04:09:37;100658.94;;;13.97;100.00
65760;BME280;52496;51.082;5.066;2022-09-09T04:12:07;100660.38;;;14.00;100.00
65760;BME280;52496;51.082;5.066;2022-09-09T04:14:38;100668.03;;;14.03;100.00
65760;BME280;52496;51.082;5.066;2022-09-09T04:17:08;100659.53;;;14.06;100.00
65760;BME280;52496;51.082;5.066;2022-09-09T04:19:38;100647.72;;;14.07;100.00
65760;BME280;52496;51.082;5.066;2022-09-09T04:22:09;100648.56;;;14.08;100.00
65760;BME280;52496;51.082;5.066;2022-09-09T04:24:39;100652.06;;;14.08;100.00
65760;BME280;52496;51.082;5.066;2022-09-09T04:27:10;100647.50;;;14.09;100.00
65760;BME280;52496;51.082;5.066;2022-09-09T04:29:40;100644.22;;;14.07;100.00
65760;BME280;52496;51.082;5.066;2022-09-09T04:32:11;100654.16;;;14.06;100.00
65760;BME280;52496;51.082;5.066;2022-09-09T04:34:41;100653.09;;;14.07;100.00
65760;BME280;52496;51.082;5.066;2022-09-09T04:37:12;100653.09;;;14.07;100.00
65760;BME280;52496;51.082;5.066;2022-09-09T04:39:42;100646.28;;;14.05;100.00
65760;BME280;52496;51.082;5.066;2022-09-09T04:42:13;100649.19;;;14.03;100.00
65760;BME280;52496;51.082;5.066;2022-09-09T04:44:43;100655.81;;;14.00;100.00
65760;BME280;52496;51.082;5.066;2022-09-09T04:47:14;100646.50;;;13.96;100.00
65760;BME280;52496;51.082;5.066;2022-09-09T04:49:44;100648.78;;;13.93;100.00
65760;BME280;52496;51.082;5.066;2022-09-09T04:52:14;100647.78;;;13.87;100.00
65760;BME280;52496;51.082;5.066;2022-09-09T04:54:47;100650.06;;;13.84;100.00
65760;BME280;52496;51.082;5.066;2022-09-09T04:57:18;100645.09;;;13.81;100.00
65760;BME280;52496;51.082;5.066;2022-09-09T04:59:48;100632.91;;;13.78;100.00
65760;BME280;52496;51.082;5.066;2022-09-09T05:02:19;100635.00;;;13.76;100.00
65760;BME280;52496;51.082;5.066;2022-09-09T05:04:49;100635.19;;;13.74;100.00
65760;BME280;52496;51.082;5.066;2022-09-09T05:07:20;100644.31;;;13.73;100.00
65760;BME280;52496;51.082;5.066;2022-09-09T05:09:50;100644.09;;;13.75;100.00
65760;BME280;52496;51.082;5.066;2022-09-09T05:12:21;100642.84;;;13.77;100.00
65760;BME280;52496;51.082;5.066;2022-09-09T05:14:54;100639.72;;;13.81;100.00
65760;BME280;52496;51.082;5.066;2022-09-09T05:17:25;100636.03;;;13.82;100.00
65760;BME280;52496;51.082;5.066;2022-09-09T05:19:55;100644.69;;;13.84;100.00
65760;BME280;52496;51.082;5.066;2022-09-09T05:40:11;100644.34;;;14.25;100.00
65760;BME280;52496;51.082;5.066;2022-09-09T05:42:42;100631.69;;;14.32;100.00
65760;BME280;52496;51.082;5.066;2022-09-09T05:45:13;100640.16;;;14.36;100.00
65760;BME280;52496;51.082;5.066;2022-09-09T05:47:43;100639.72;;;14.39;100.00
65760;BME280;52496;51.082;5.066;2022-09-09T05:50:14;100653.16;;;14.45;100.00
65760;BME280;52496;51.082;5.066;2022-09-09T05:52:46;100659.56;;;14.51;100.00
65760;BME280;52496;51.082;5.066;2022-09-09T05:55:18;100651.06;;;14.54;100.00
65760;BME280;52496;51.082;5.066;2022-09-09T05:57:49;100653.13;;;14.59;100.00
65760;BME280;52496;51.082;5.066;2022-09-09T06:00:20;100658.47;;;14.65;100.00
65760;BME280;52496;51.082;5.066;2022-09-09T06:02:52;100655.53;;;14.74;100.00
65760;BME280;52496;51.082;5.066;2022-09-09T06:05:23;100649.28;;;14.80;100.00
65760;BME280;52496;51.082;5.066;2022-09-09T06:07:54;100647.59;;;14.85;100.00
65760;BME280;52496;51.082;5.066;2022-09-09T06:10:25;100648.56;;;14.91;100.00
65760;BME280;52496;51.082;5.066;2022-09-09T06:12:57;100647.09;;;14.95;100.00
65760;BME280;52496;51.082;5.066;2022-09-09T06:15:31;100639.59;;;14.97;100.00
65760;BME280;52496;51.082;5.066;2022-09-09T06:18:02;100645.63;;;14.99;100.00
65760;BME280;52496;51.082;5.066;2022-09-09T06:20:32;100636.03;;;15.03;100.00
65760;BME280;52496;51.082;5.066;2022-09-09T06:23:03;100637.28;;;15.07;100.00
65760;BME280;52496;51.082;5.066;2022-09-09T06:25:33;100640.72;;;15.14;100.00
65760;BME280;52496;51.082;5.066;2022-09-09T06:28:04;100635.69;;;15.25;100.00
65760;BME280;52496;51.082;5.066;2022-09-09T06:30:34;100635.78;;;15.36;100.00
65760;BME280;52496;51.082;5.066;2022-09-09T06:33:06;100644.56;;;15.50;100.00
65760;BME280;52496;51.082;5.066;2022-09-09T06:35:37;100647.34;;;15.69;100.00
65760;BME280;52496;51.082;5.066;2022-09-09T06:38:07;100639.25;;;15.87;100.00
65760;BME280;52496;51.082;5.066;2022-09-09T06:40:38;100640.00;;;15.94;100.00
65760;BME280;52496;51.082;5.066;2022-09-09T06:43:09;100645.19;;;15.96;100.00
65760;BME280;52496;51.082;5.066;2022-09-09T06:45:40;100635.22;;;15.96;100.00
65760;BME280;52496;51.082;5.066;2022-09-09T06:48:11;100645.38;;;15.94;100.00
65760;BME280;52496;51.082;5.066;2022-09-09T06:50:41;100646.25;;;15.95;100.00
65760;BME280;52496;51.082;5.066;2022-09-09T06:53:16;100635.00;;;15.98;100.00
65760;BME280;52496;51.082;5.066;2022-09-09T06:55:47;100633.03;;;16.05;100.00
65760;BME280;52496;51.082;5.066;2022-09-09T06:58:18;100631.91;;;16.13;100.00
65760;BME280;52496;51.082;5.066;2022-09-09T07:00:48;100638.06;;;16.20;100.00
65760;BME280;52496;51.082;5.066;2022-09-09T07:03:20;100634.22;;;16.27;99.65
65760;BME280;52496;51.082;5.066;2022-09-09T07:05:54;100632.28;;;16.35;98.63
65760;BME280;52496;51.082;5.066;2022-09-09T07:08:26;100624.09;;;16.41;98.38
65760;BME280;52496;51.082;5.066;2022-09-09T07:11:04;100629.16;;;16.49;96.63
65760;BME280;52496;51.082;5.066;2022-09-09T07:13:35;100633.66;;;16.56;96.49
65760;BME280;52496;51.082;5.066;2022-09-09T07:16:08;100629.19;;;16.61;95.78
65760;BME280;52496;51.082;5.066;2022-09-09T07:18:40;100636.16;;;16.69;96.05
65760;BME280;52496;51.082;5.066;2022-09-09T07:21:13;100639.59;;;16.76;93.87
65760;BME280;52496;51.082;5.066;2022-09-09T07:23:45;100634.34;;;16.81;95.60
65760;BME280;52496;51.082;5.066;2022-09-09T07:26:17;100633.09;;;16.95;94.16
65760;BME280;52496;51.082;5.066;2022-09-09T07:28:49;100628.06;;;17.11;92.69
65760;BME280;52496;51.082;5.066;2022-09-09T07:31:34;100627.38;;;17.27;92.69
65760;BME280;52496;51.082;5.066;2022-09-09T07:34:06;100627.13;;;17.40;91.90
65760;BME280;52496;51.082;5.066;2022-09-09T07:36:39;100631.25;;;17.43;89.41
65760;BME280;52496;51.082;5.066;2022-09-09T07:39:11;100631.03;;;17.45;90.43
65760;BME280;52496;51.082;5.066;2022-09-09T07:41:47;100630.44;;;17.42;90.07
65760;BME280;52496;51.082;5.066;2022-09-09T07:44:21;100640.56;;;17.35;90.98
65760;BME280;52496;51.082;5.066;2022-09-09T07:46:51;100645.34;;;17.33;89.39
65760;BME280;52496;51.082;5.066;2022-09-09T07:49:22;100639.81;;;17.28;90.09
65760;BME280;52496;51.082;5.066;2022-09-09T07:51:53;100641.34;;;17.24;89.17
65760;BME280;52496;51.082;5.066;2022-09-09T07:54:24;100646.63;;;17.19;89.45
65760;BME280;52496;51.082;5.066;2022-09-09T07:56:56;100634.03;;;17.13;89.21
65760;BME280;52496;51.082;5.066;2022-09-09T07:59:27;100635.13;;;17.12;90.53
65760;BME280;52496;51.082;5.066;2022-09-09T08:02:00;100637.69;;;17.07;89.00
65760;BME280;52496;51.082;5.066;2022-09-09T08:04:31;100636.03;;;17.06;89.18
65760;BME280;52496;51.082;5.066;2022-09-09T08:07:02;100638.13;;;17.04;89.72
65760;BME280;52496;51.082;5.066;2022-09-09T08:09:34;100638.13;;;17.04;89.20
65760;BME280;52496;51.082;5.066;2022-09-09T08:12:05;100641.31;;;17.01;90.31
65760;BME280;52496;51.082;5.066;2022-09-09T08:14:38;100639.47;;;17.01;89.84
65760;BME280;52496;51.082;5.066;2022-09-09T08:17:10;100635.34;;;16.99;89.49
65760;BME280;52496;51.082;5.066;2022-09-09T08:19:40;100637.31;;;17.03;89.08
65760;BME280;52496;51.082;5.066;2022-09-09T08:22:11;100648.03;;;17.10;89.17
65760;BME280;52496;51.082;5.066;2022-09-09T08:24:41;100644.16;;;17.17;89.73
65760;BME280;52496;51.082;5.066;2022-09-09T08:27:12;100641.59;;;17.23;90.61
65760;BME280;52496;51.082;5.066;2022-09-09T08:29:43;100645.47;;;17.27;88.98
65760;BME280;52496;51.082;5.066;2022-09-09T08:32:13;100650.16;;;17.31;87.72
65760;BME280;52496;51.082;5.066;2022-09-09T08:34:44;100651.94;;;17.37;89.02
65760;BME280;52496;51.082;5.066;2022-09-09T08:37:14;100646.06;;;17.40;86.60
65760;BME280;52496;51.082;5.066;2022-09-09T08:39:45;100646.06;;;17.40;86.69
65760;BME280;52496;51.082;5.066;2022-09-09T08:47:38;100655.25;;;17.63;86.94
65760;BME280;52496;51.082;5.066;2022-09-09T08:50:25;100652.28;;;17.76;86.15
65760;BME280;52496;51.082;5.066;2022-09-09T08:53:16;100657.25;;;17.91;85.04
65760;BME280;52496;51.082;5.066;2022-09-09T08:55:52;100653.47;;;18.04;84.23
65760;BME280;52496;51.082;5.066;2022-09-09T08:58:27;100658.38;;;18.07;83.78
65760;BME280;52496;51.082;5.066;2022-09-09T09:03:44;100662.16;;;18.06;83.35
65760;BME280;52496;51.082;5.066;2022-09-09T09:09:33;100674.88;;;18.05;82.99
65760;BME280;52496;51.082;5.066;2022-09-09T09:12:16;100675.91;;;18.04;83.94
65760;BME280;52496;51.082;5.066;2022-09-09T09:14:48;100675.09;;;18.04;83.01
65760;BME280;52496;51.082;5.066;2022-09-09T09:17:22;100681.34;;;18.04;82.05
65760;BME280;52496;51.082;5.066;2022-09-09T09:19:54;100675.59;;;18.01;82.34
65760;BME280;52496;51.082;5.066;2022-09-09T09:22:47;100675.38;;;17.91;81.81
65760;BME280;52496;51.082;5.066;2022-09-09T09:25:23;100674.09;;;17.81;82.76
65760;BME280;52496;51.082;5.066;2022-09-09T09:30:46;100687.81;;;17.68;83.88
65760;BME280;52496;51.082;5.066;2022-09-09T09:35:58;100695.69;;;17.58;86.17
65760;BME280;52496;51.082;5.066;2022-09-09T09:38:29;100692.75;;;17.48;87.73
65760;BME280;52496;51.082;5.066;2022-09-09T09:41:01;100700.22;;;17.34;89.50
65760;BME280;52496;51.082;5.066;2022-09-09T09:43:37;100698.56;;;17.21;90.49
65760;BME280;52496;51.082;5.066;2022-09-09T09:46:23;100695.97;;;17.14;92.27
65760;BME280;52496;51.082;5.066;2022-09-09T09:49:03;100701.59;;;17.13;93.02
65760;BME280;52496;51.082;5.066;2022-09-09T09:51:35;100696.66;;;17.10;93.58
65760;BME280;52496;51.082;5.066;2022-09-09T09:56:46;100706.28;;;17.06;94.86
65760;BME280;52496;51.082;5.066;2022-09-09T09:59:24;100704.66;;;17.05;95.18
65760;BME280;52496;51.082;5.066;2022-09-09T10:02:18;100704.66;;;17.05;95.24
65760;BME280;52496;51.082;5.066;2022-09-09T10:05:00;100704.19;;;17.08;95.70
65760;BME280;52496;51.082;5.066;2022-09-09T10:07:31;100704.91;;;17.15;96.28
65760;BME280;52496;51.082;5.066;2022-09-09T10:10:03;100705.03;;;17.20;95.89
65760;BME280;52496;51.082;5.066;2022-09-09T10:12:51;100701.97;;;17.28;95.75
65760;BME280;52496;51.082;5.066;2022-09-09T10:24:19;100708.13;;;17.35;95.31
65760;BME280;52496;51.082;5.066;2022-09-09T10:32:37;100707.44;;;17.52;95.92
65760;BME280;52496;51.082;5.066;2022-09-09T10:38:03;100715.47;;;17.82;94.20
65760;BME280;52496;51.082;5.066;2022-09-09T10:53:08;100714.03;;;18.15;92.46
65760;BME280;52496;51.082;5.066;2022-09-09T10:55:55;100711.44;;;18.20;92.57
65760;BME280;52496;51.082;5.066;2022-09-09T10:58:33;100721.91;;;18.16;92.60
65760;BME280;52496;51.082;5.066;2022-09-09T11:01:18;100714.38;;;18.18;92.65
65760;BME280;52496;51.082;5.066;2022-09-09T11:03:59;100714.03;;;18.26;92.37
65760;BME280;52496;51.082;5.066;2022-09-09T11:06:41;100711.06;;;18.28;92.03
65760;BME280;52496;51.082;5.066;2022-09-09T11:09:19;100722.63;;;18.23;91.69
65760;BME280;52496;51.082;5.066;2022-09-09T11:11:54;100717.09;;;18.18;92.54
65760;BME280;52496;51.082;5.066;2022-09-09T11:14:52;100713.66;;;18.23;93.35
65760;BME280;52496;51.082;5.066;2022-09-09T11:17:50;100712.97;;;18.27;92.85
65760;BME280;52496;51.082;5.066;2022-09-09T11:20:19;100711.53;;;18.37;93.06
65760;BME280;52496;51.082;5.066;2022-09-09T11:23:02;100713.72;;;18.51;92.63
65760;BME280;52496;51.082;5.066;2022-09-09T11:25:41;100713.78;;;18.68;91.11
65760;BME280;52496;51.082;5.066;2022-09-09T11:31:30;100711.47;;;19.17;91.94
65760;BME280;52496;51.082;5.066;2022-09-09T11:36:56;100716.47;;;19.25;88.27
65760;BME280;52496;51.082;5.066;2022-09-09T11:42:19;100708.53;;;19.36;88.06
65760;BME280;52496;51.082;5.066;2022-09-09T11:44:51;100711.81;;;19.55;86.64
65760;BME280;52496;51.082;5.066;2022-09-09T11:47:26;100698.34;;;19.77;85.85
65760;BME280;52496;51.082;5.066;2022-09-09T11:52:48;100716.38;;;20.27;84.11
65760;BME280;52496;51.082;5.066;2022-09-09T11:55:35;100713.53;;;20.33;83.05
65760;BME280;52496;51.082;5.066;2022-09-09T12:00:44;100699.38;;;20.53;81.70
65760;BME280;52496;51.082;5.066;2022-09-09T12:03:46;100701.44;;;20.68;80.74
65760;BME280;52496;51.082;5.066;2022-09-09T12:06:29;100706.81;;;20.63;79.50
65760;BME280;52496;51.082;5.066;2022-09-09T12:09:15;100704.44;;;20.67;79.83
65760;BME280;52496;51.082;5.066;2022-09-09T12:11:49;100690.00;;;20.88;78.31
65760;BME280;52496;51.082;5.066;2022-09-09T12:19:45;100676.31;;;21.42;72.48
65760;BME280;52496;51.082;5.066;2022-09-09T12:25:35;100680.44;;;21.45;72.16
65760;BME280;52496;51.082;5.066;2022-09-09T12:28:17;100681.00;;;21.47;73.21
65760;BME280;52496;51.082;5.066;2022-09-09T12:33:36;100686.25;;;22.01;70.57
65760;BME280;52496;51.082;5.066;2022-09-09T12:36:11;100679.72;;;22.02;69.22
65760;BME280;52496;51.082;5.066;2022-09-09T12:38:44;100676.59;;;22.26;70.82
65760;BME280;52496;51.082;5.066;2022-09-09T12:41:20;100689.41;;;22.25;65.96
65760;BME280;52496;51.082;5.066;2022-09-09T12:43:51;100693.00;;;21.93;68.28
65760;BME280;52496;51.082;5.066;2022-09-09T12:46:51;100686.88;;;21.71;67.20
65760;BME280;52496;51.082;5.066;2022-09-09T12:49:38;100691.59;;;21.48;68.09
65760;BME280;52496;51.082;5.066;2022-09-09T12:52:33;100683.28;;;21.33;69.60
65760;BME280;52496;51.082;5.066;2022-09-09T12:55:07;100683.81;;;21.30;70.12
65760;BME280;52496;51.082;5.066;2022-09-09T12:57:39;100678.81;;;21.17;69.35
65760;BME280;52496;51.082;5.066;2022-09-09T13:00:18;100685.81;;;21.07;69.67
65760;BME280;52496;51.082;5.066;2022-09-09T13:02:53;100680.22;;;21.19;69.80
65760;BME280;52496;51.082;5.066;2022-09-09T13:08:05;100682.44;;;21.60;68.78
65760;BME280;52496;51.082;5.066;2022-09-09T13:10:47;100690.19;;;21.73;68.13
65760;BME280;52496;51.082;5.066;2022-09-09T13:13:26;100675.53;;;21.79;67.95
65760;BME280;52496;51.082;5.066;2022-09-09T13:15:59;100696.63;;;21.62;67.60
65760;BME280;52496;51.082;5.066;2022-09-09T13:18:33;100669.78;;;21.38;67.72
65760;BME280;52496;51.082;5.066;2022-09-09T13:21:04;100675.22;;;21.38;68.38
65760;BME280;52496;51.082;5.066;2022-09-09T13:23:36;100677.53;;;21.57;68.99
65760;BME280;52496;51.082;5.066;2022-09-09T13:26:26;100677.09;;;21.70;68.08
65760;BME280;52496;51.082;5.066;2022-09-09T13:29:14;100672.63;;;22.01;67.19
65760;BME280;52496;51.082;5.066;2022-09-09T13:31:48;100664.31;;;22.23;67.00
65760;BME280;52496;51.082;5.066;2022-09-09T13:34:30;100658.91;;;22.33;66.48
65760;BME280;52496;51.082;5.066;2022-09-09T13:37:05;100658.44;;;22.62;65.21
65760;BME280;52496;51.082;5.066;2022-09-09T13:39:37;100665.00;;;22.71;64.10
65760;BME280;52496;51.082;5.066;2022-09-09T13:42:30;100664.50;;;22.89;63.44
65760;BME280;52496;51.082;5.066;2022-09-09T13:45:03;100660.41;;;22.87;63.17
65760;BME280;52496;51.082;5.066;2022-09-09T13:47:35;100659.56;;;22.71;62.97
65760;BME280;52496;51.082;5.066;2022-09-09T13:52:52;100663.34;;;22.70;64.71
65760;BME280;52496;51.082;5.066;2022-09-09T13:55:27;100668.00;;;22.75;64.02
65760;BME280;52496;51.082;5.066;2022-09-09T13:58:03;100664.47;;;22.74;63.90
65760;BME280;52496;51.082;5.066;2022-09-09T14:00:35;100661.72;;;22.69;62.78
65760;BME280;52496;51.082;5.066;2022-09-09T14:03:06;100658.19;;;22.58;62.18
65760;BME280;52496;51.082;5.066;2022-09-09T14:05:38;100662.25;;;22.56;64.81
65760;BME280;52496;51.082;5.066;2022-09-09T14:08:22;100657.34;;;22.58;64.06
65760;BME280;52496;51.082;5.066;2022-09-09T14:10:53;100663.31;;;22.50;63.54
65760;BME280;52496;51.082;5.066;2022-09-09T14:13:26;100669.28;;;22.41;64.11
65760;BME280;52496;51.082;5.066;2022-09-09T14:15:56;100660.56;;;22.39;63.26
65760;BME280;52496;51.082;5.066;2022-09-09T14:18:27;100669.25;;;22.36;63.35
65760;BME280;52496;51.082;5.066;2022-09-09T14:20:57;100674.16;;;22.39;64.01
65760;BME280;52496;51.082;5.066;2022-09-09T14:23:28;100670.34;;;22.35;61.17
65760;BME280;52496;51.082;5.066;2022-09-09T14:25:59;100671.94;;;22.21;62.19
65760;BME280;52496;51.082;5.066;2022-09-09T14:28:30;100673.78;;;22.10;62.42
65760;BME280;52496;51.082;5.066;2022-09-09T14:31:02;100673.16;;;21.98;63.17
65760;BME280;52496;51.082;5.066;2022-09-09T14:33:35;100670.59;;;21.81;63.07
65760;BME280;52496;51.082;5.066;2022-09-09T14:36:05;100676.53;;;21.68;63.99
65760;BME280;52496;51.082;5.066;2022-09-09T14:38:38;100678.09;;;21.59;64.19
65760;BME280;52496;51.082;5.066;2022-09-09T14:41:13;100668.75;;;21.44;64.77
65760;BME280;52496;51.082;5.066;2022-09-09T14:43:46;100668.16;;;21.37;64.61
65760;BME280;52496;51.082;5.066;2022-09-09T14:46:19;100676.56;;;21.36;64.41
65760;BME280;52496;51.082;5.066;2022-09-09T14:48:49;100671.50;;;21.49;65.83
65760;BME280;52496;51.082;5.066;2022-09-09T14:51:22;100670.59;;;21.81;65.81
65760;BME280;52496;51.082;5.066;2022-09-09T14:54:02;100659.28;;;21.99;64.97
65760;BME280;52496;51.082;5.066;2022-09-09T14:56:33;100669.38;;;22.04;64.47
65760;BME280;52496;51.082;5.066;2022-09-09T14:59:07;100652.22;;;22.04;64.61
65760;BME280;52496;51.082;5.066;2022-09-09T15:01:37;100657.88;;;21.92;63.84
65760;BME280;52496;51.082;5.066;2022-09-09T15:04:12;100661.56;;;21.70;63.47
65760;BME280;52496;51.082;5.066;2022-09-09T15:06:42;100660.09;;;21.52;63.98
65760;BME280;52496;51.082;5.066;2022-09-09T15:09:17;100660.00;;;21.42;64.39
65760;BME280;52496;51.082;5.066;2022-09-09T15:11:47;100652.66;;;21.38;64.64
65760;BME280;52496;51.082;5.066;2022-09-09T15:14:18;100651.81;;;21.37;65.42
65760;BME280;52496;51.082;5.066;2022-09-09T15:16:48;100657.03;;;21.44;65.14
65760;BME280;52496;51.082;5.066;2022-09-09T15:19:23;100657.28;;;21.42;64.94
65760;BME280;52496;51.082;5.066;2022-09-09T15:21:54;100660.72;;;21.65;64.74
65760;BME280;52496;51.082;5.066;2022-09-09T15:24:24;100672.22;;;21.77;64.69
65760;BME280;52496;51.082;5.066;2022-09-09T15:26:56;100660.47;;;21.71;63.05
65760;BME280;52496;51.082;5.066;2022-09-09T15:29:28;100674.03;;;21.61;64.07
65760;BME280;52496;51.082;5.066;2022-09-09T15:31:58;100658.97;;;21.48;63.72
65760;BME280;52496;51.082;5.066;2022-09-09T15:34:28;100671.78;;;21.53;64.63
65760;BME280;52496;51.082;5.066;2022-09-09T15:36:59;100665.16;;;21.76;64.32